Time,TemperatureF,DewpointF,PressureIn,WindDirection,WindDirectionDegrees,WindSpeedMPH,WindSpeedGustMPH,Humidity,HourlyPrecipIn,Conditions,Clouds,dailyrainin,SoftwareType,DateUTC
2013-10-20 00:06:00,24.7,19.0,30.25,South,175,0.0,0.0,78,0.00,,,0.00,weatherlink.com 1.10,2013-10-20 06:06:00,
2013-10-20 00:21:00,25.3,18.0,30.24,South,179,0.0,2.0,73,0.00,,,0.00,weatherlink.com 1.10,2013-10-20 06:21:00,
2013-10-20 00:36:00,24.8,18.0,30.24,South,172,0.0,1.0,76,0.00,,,0.00,weatherlink.com 1.10,2013-10-20 06:36:00,
2013-10-20 00:51:00,24.8,19.0,30.23,South,180,0.0,2.0,77,0.00,,,0.00,weatherlink.com 1.10,2013-10-20 06:51:00,
2013-10-20 01:06:00,24.3,18.0,30.23,South,170,0.0,0.0,78,0.00,,,0.00,weatherlink.com 1.10,2013-10-20 07:06:00,
2013-10-20 01:21:00,23.6,18.0,30.23,South,170,0.0,1.0,78,0.00,,,0.00,weatherlink.com 1.10,2013-10-20 07:21:00,
2013-10-20 01:36:00,23.2,18.0,30.22,South,170,0.0,1.0,80,0.00,,,0.00,weatherlink.com 1.10,2013-10-20 07:36:00,
2013-10-20 01:51:00,22.6,17.0,30.22,SSE,166,0.0,1.0,80,0.00,,,0.00,weatherlink.com 1.10,2013-10-20 07:51:00,
2013-10-20 02:06:00,22.1,17.0,30.22,SSE,163,0.0,1.0,81,0.00,,,0.00,weatherlink.com 1.10,2013-10-20 08:06:00,
2013-10-20 02:21:00,21.7,17.0,30.22,SSE,164,0.0,1.0,82,0.00,,,0.00,weatherlink.com 1.10,2013-10-20 08:21:00,
2013-10-20 02:36:00,21.3,17.0,30.21,SSE,164,0.0,1.0,82,0.00,,,0.00,weatherlink.com 1.10,2013-10-20 08:36:00,
2013-10-20 02:51:00,21.1,16.0,30.21,South,172,0.0,1.0,82,0.00,,,0.00,weatherlink.com 1.10,2013-10-20 08:51:00,
2013-10-20 03:06:00,20.5,16.0,30.21,SSE,163,0.0,1.0,83,0.00,,,0.00,weatherlink.com 1.10,2013-10-20 09:06:00,
2013-10-20 03:21:00,20.1,16.0,30.21,SSE,163,0.0,1.0,84,0.00,,,0.00,weatherlink.com 1.10,2013-10-20 09:21:00,
2013-10-20 03:36:00,19.8,16.0,30.20,SSE,163,0.0,0.0,84,0.00,,,0.00,weatherlink.com 1.10,2013-10-20 09:36:00,
2013-10-20 03:51:00,20.0,16.0,30.19,South,173,0.0,1.0,83,0.00,,,0.00,weatherlink.com 1.10,2013-10-20 09:51:00,
2013-10-20 04:07:00,19.6,16.0,30.18,South,174,0.0,1.0,84,0.00,,,0.00,weatherlink.com 1.10,2013-10-20 10:07:00,
2013-10-20 04:22:00,19.3,15.0,30.19,South,173,0.0,1.0,84,0.00,,,0.00,weatherlink.com 1.10,2013-10-20 10:22:00,
2013-10-20 04:37:00,18.9,15.0,30.18,South,174,0.0,0.0,85,0.00,,,0.00,weatherlink.com 1.10,2013-10-20 10:37:00,
2013-10-20 04:52:00,18.5,15.0,30.18,South,174,0.0,1.0,86,0.00,,,0.00,weatherlink.com 1.10,2013-10-20 10:52:00,
2013-10-20 05:07:00,18.2,15.0,30.18,South,174,0.0,2.0,86,0.00,,,0.00,weatherlink.com 1.10,2013-10-20 11:07:00,
2013-10-20 05:22:00,18.1,15.0,30.18,South,175,0.0,2.0,86,0.00,,,0.00,weatherlink.com 1.10,2013-10-20 11:22:00,
2013-10-20 05:37:00,18.0,15.0,30.18,South,174,0.0,1.0,87,0.00,,,0.00,weatherlink.com 1.10,2013-10-20 11:37:00,
2013-10-20 05:52:00,17.9,15.0,30.17,SSE,162,0.0,1.0,87,0.00,,,0.00,weatherlink.com 1.10,2013-10-20 11:52:00,
2013-10-20 06:07:00,17.7,15.0,30.17,SSE,162,0.0,0.0,87,0.00,,,0.00,weatherlink.com 1.10,2013-10-20 12:07:00,
2013-10-20 06:22:00,17.4,15.0,30.17,SSE,162,0.0,1.0,88,0.00,,,0.00,weatherlink.com 1.10,2013-10-20 12:22:00,
2013-10-20 06:37:00,17.4,15.0,30.17,SSE,162,0.0,0.0,88,0.00,,,0.00,weatherlink.com 1.10,2013-10-20 12:37:00,
2013-10-20 06:52:00,17.3,14.0,30.17,SSE,158,0.0,1.0,88,0.00,,,0.00,weatherlink.com 1.10,2013-10-20 12:52:00,
2013-10-20 07:07:00,17.0,14.0,30.16,South,169,0.0,1.0,89,0.00,,,0.00,weatherlink.com 1.10,2013-10-20 13:07:00,
2013-10-20 07:22:00,17.5,15.0,30.16,South,172,0.0,1.0,88,0.00,,,0.00,weatherlink.com 1.10,2013-10-20 13:22:00,
2013-10-20 07:37:00,17.1,14.0,30.17,South,169,0.0,0.0,88,0.00,,,0.00,weatherlink.com 1.10,2013-10-20 13:37:00,
2013-10-20 07:52:00,17.2,15.0,30.16,South,169,0.0,0.0,89,0.00,,,0.00,weatherlink.com 1.10,2013-10-20 13:52:00,
2013-10-20 08:07:00,18.0,15.0,30.17,South,179,0.0,2.0,89,0.00,,,0.00,weatherlink.com 1.10,2013-10-20 14:07:00,
2013-10-20 08:22:00,19.1,16.0,30.17,SSE,158,0.0,1.0,88,0.00,,,0.00,weatherlink.com 1.10,2013-10-20 14:22:00,
2013-10-20 08:37:00,19.8,17.0,30.17,SSE,165,0.0,0.0,88,0.00,,,0.00,weatherlink.com 1.10,2013-10-20 14:37:00,
2013-10-20 08:52:00,21.5,18.0,30.17,SSE,165,0.0,3.0,87,0.00,,,0.00,weatherlink.com 1.10,2013-10-20 14:52:00,
2013-10-20 09:07:00,23.4,20.0,30.16,SSE,156,1.0,1.0,85,0.00,,,0.00,weatherlink.com 1.10,2013-10-20 15:07:00,
2013-10-20 09:22:00,26.2,20.0,30.15,SE,141,0.0,1.0,76,0.00,,,0.00,weatherlink.com 1.10,2013-10-20 15:22:00,
2013-10-20 09:37:00,27.2,20.0,30.15,SE,140,0.0,0.0,73,0.00,,,0.00,weatherlink.com 1.10,2013-10-20 15:37:00,
2013-10-20 09:52:00,28.7,20.0,30.13,SE,140,0.0,0.0,71,0.00,,,0.00,weatherlink.com 1.10,2013-10-20 15:52:00,
2013-10-20 10:07:00,31.7,21.0,30.12,ESE,111,3.0,5.0,65,0.00,,,0.00,weatherlink.com 1.10,2013-10-20 16:07:00,
2013-10-20 10:22:00,34.8,21.0,30.11,ESE,120,4.0,6.0,58,0.00,,,0.00,weatherlink.com 1.10,2013-10-20 16:22:00,
2013-10-20 10:38:00,38.6,21.0,30.09,East,100,6.0,7.0,49,0.00,,,0.00,weatherlink.com 1.10,2013-10-20 16:38:00,
2013-10-20 10:53:00,40.0,20.0,30.09,ESE,105,8.0,11.0,45,0.00,,,0.00,weatherlink.com 1.10,2013-10-20 16:53:00,
2013-10-20 11:08:00,41.3,20.0,30.07,ESE,107,2.0,10.0,43,0.00,,,0.00,weatherlink.com 1.10,2013-10-20 17:08:00,
2013-10-20 11:23:00,40.4,20.0,30.07,SE,127,4.0,9.0,44,0.00,,,0.00,weatherlink.com 1.10,2013-10-20 17:23:00,
2013-10-20 11:38:00,41.5,20.0,30.06,East,98,8.0,13.0,42,0.00,,,0.00,weatherlink.com 1.10,2013-10-20 17:38:00,
2013-10-20 11:53:00,42.0,20.0,30.06,SE,141,6.0,12.0,41,0.00,,,0.00,weatherlink.com 1.10,2013-10-20 17:53:00,
2013-10-20 12:08:00,42.5,20.0,30.06,East,101,4.0,14.0,40,0.00,,,0.00,weatherlink.com 1.10,2013-10-20 18:08:00,
2013-10-20 12:23:00,43.0,19.0,30.05,ESE,103,8.0,15.0,39,0.00,,,0.00,weatherlink.com 1.10,2013-10-20 18:23:00,
2013-10-20 12:38:00,44.6,20.0,30.05,ESE,119,5.0,14.0,37,0.00,,,0.00,weatherlink.com 1.10,2013-10-20 18:38:00,
2013-10-20 12:53:00,46.0,19.0,30.03,ESE,117,4.0,10.0,34,0.00,,,0.00,weatherlink.com 1.10,2013-10-20 18:53:00,
2013-10-20 13:08:00,46.5,19.0,30.03,ESE,117,3.0,16.0,33,0.00,,,0.00,weatherlink.com 1.10,2013-10-20 19:08:00,
2013-10-20 13:23:00,47.4,19.0,30.02,North,349,5.0,16.0,32,0.00,,,0.00,weatherlink.com 1.10,2013-10-20 19:23:00,
2013-10-20 13:38:00,45.0,17.0,30.02,East,93,6.0,11.0,32,0.00,,,0.00,weatherlink.com 1.10,2013-10-20 19:38:00,
2013-10-20 13:53:00,44.8,16.0,30.01,East,99,10.0,13.0,31,0.00,,,0.00,weatherlink.com 1.10,2013-10-20 19:53:00,
2013-10-20 14:08:00,45.9,17.0,30.00,ESE,110,4.0,16.0,31,0.00,,,0.00,weatherlink.com 1.10,2013-10-20 20:08:00,
2013-10-20 14:23:00,45.6,16.0,30.00,ESE,117,12.0,13.0,31,0.00,,,0.00,weatherlink.com 1.10,2013-10-20 20:23:00,
2013-10-20 14:38:00,45.2,16.0,30.00,ESE,123,4.0,14.0,31,0.00,,,0.00,weatherlink.com 1.10,2013-10-20 20:38:00,
2013-10-20 14:53:00,45.5,16.0,30.00,SE,125,5.0,14.0,31,0.00,,,0.00,weatherlink.com 1.10,2013-10-20 20:53:00,
2013-10-20 15:08:00,44.9,17.0,30.00,East,89,6.0,18.0,32,0.00,,,0.00,weatherlink.com 1.10,2013-10-20 21:08:00,
2013-10-20 15:23:00,44.6,18.0,30.00,ESE,115,6.0,13.0,34,0.00,,,0.00,weatherlink.com 1.10,2013-10-20 21:23:00,
2013-10-20 15:38:00,44.6,16.0,30.00,East,94,8.0,21.0,32,0.00,,,0.00,weatherlink.com 1.10,2013-10-20 21:38:00,
2013-10-20 15:53:00,44.5,17.0,30.00,SE,132,2.0,13.0,33,0.00,,,0.00,weatherlink.com 1.10,2013-10-20 21:53:00,
2013-10-20 16:08:00,44.7,16.0,29.99,ESE,106,7.0,16.0,32,0.00,,,0.00,weatherlink.com 1.10,2013-10-20 22:08:00,
2013-10-20 16:23:00,45.0,16.0,30.00,ESE,122,11.0,15.0,31,0.00,,,0.00,weatherlink.com 1.10,2013-10-20 22:23:00,
2013-10-20 16:38:00,44.9,17.0,30.00,East,101,4.0,14.0,33,0.00,,,0.00,weatherlink.com 1.10,2013-10-20 22:38:00,
2013-10-20 16:53:00,44.2,16.0,30.01,ESE,107,4.0,13.0,32,0.00,,,0.00,weatherlink.com 1.10,2013-10-20 22:53:00,
2013-10-20 17:08:00,44.1,17.0,30.01,ESE,108,9.0,16.0,34,0.00,,,0.00,weatherlink.com 1.10,2013-10-20 23:08:00,
2013-10-20 17:23:00,43.9,16.0,30.02,East,94,4.0,13.0,33,0.00,,,0.00,weatherlink.com 1.10,2013-10-20 23:23:00,
2013-10-20 17:38:00,43.4,17.0,30.02,ESE,117,9.0,10.0,34,0.00,,,0.00,weatherlink.com 1.10,2013-10-20 23:38:00,
2013-10-20 17:53:00,42.3,16.0,30.03,ESE,117,5.0,14.0,34,0.00,,,0.00,weatherlink.com 1.10,2013-10-20 23:53:00,
2013-10-20 18:08:00,41.3,15.0,30.04,SE,127,3.0,12.0,34,0.00,,,0.00,weatherlink.com 1.10,2013-10-21 00:08:00,
2013-10-20 18:23:00,40.1,16.0,30.05,ESE,110,6.0,11.0,37,0.00,,,0.00,weatherlink.com 1.10,2013-10-21 00:23:00,
2013-10-20 18:38:00,38.7,17.0,30.05,SE,129,1.0,5.0,42,0.00,,,0.00,weatherlink.com 1.10,2013-10-21 00:38:00,
2013-10-20 18:53:00,36.6,19.0,30.06,SE,134,0.0,1.0,49,0.00,,,0.00,weatherlink.com 1.10,2013-10-21 00:53:00,
2013-10-20 19:09:00,34.1,19.0,30.06,SE,140,0.0,1.0,55,0.00,,,0.00,weatherlink.com 1.10,2013-10-21 01:09:00,
2013-10-20 19:24:00,32.4,19.0,30.07,SE,140,0.0,1.0,59,0.00,,,0.00,weatherlink.com 1.10,2013-10-21 01:24:00,
2013-10-20 19:39:00,31.3,20.0,30.07,SSE,153,0.0,1.0,64,0.00,,,0.00,weatherlink.com 1.10,2013-10-21 01:39:00,
2013-10-20 19:54:00,30.5,21.0,30.09,SSE,153,1.0,1.0,69,0.00,,,0.00,weatherlink.com 1.10,2013-10-21 01:54:00,
2013-10-20 20:09:00,30.1,20.0,30.09,South,181,1.0,1.0,67,0.00,,,0.00,weatherlink.com 1.10,2013-10-21 02:09:00,
2013-10-20 20:24:00,29.4,20.0,30.09,South,178,0.0,2.0,67,0.00,,,0.00,weatherlink.com 1.10,2013-10-21 02:24:00,
2013-10-20 20:39:00,28.4,20.0,30.10,South,177,0.0,0.0,70,0.00,,,0.00,weatherlink.com 1.10,2013-10-21 02:39:00,
2013-10-20 20:54:00,28.0,19.0,30.11,South,183,0.0,3.0,70,0.00,,,0.00,weatherlink.com 1.10,2013-10-21 02:54:00,
2013-10-20 21:09:00,27.6,20.0,30.11,South,173,0.0,2.0,73,0.00,,,0.00,weatherlink.com 1.10,2013-10-21 03:09:00,
2013-10-20 21:24:00,26.8,19.0,30.12,SSE,168,0.0,0.0,73,0.00,,,0.00,weatherlink.com 1.10,2013-10-21 03:24:00,
2013-10-20 21:39:00,26.8,20.0,30.12,SSE,168,0.0,1.0,75,0.00,,,0.00,weatherlink.com 1.10,2013-10-21 03:39:00,
2013-10-20 21:54:00,26.3,20.0,30.12,SSE,168,0.0,1.0,78,0.00,,,0.00,weatherlink.com 1.10,2013-10-21 03:54:00,
2013-10-20 22:09:00,26.2,20.0,30.13,SSE,168,0.0,0.0,77,0.00,,,0.00,weatherlink.com 1.10,2013-10-21 04:09:00,
2013-10-20 22:24:00,26.9,21.0,30.13,SSE,158,0.0,2.0,77,0.00,,,0.00,weatherlink.com 1.10,2013-10-21 04:24:00,
2013-10-20 22:39:00,27.1,21.0,30.13,SSE,158,0.0,0.0,77,0.00,,,0.00,weatherlink.com 1.10,2013-10-21 04:39:00,
2013-10-20 22:54:00,27.3,21.0,30.13,SSE,158,0.0,1.0,76,0.00,,,0.00,weatherlink.com 1.10,2013-10-21 04:54:00,
2013-10-20 23:09:00,26.7,20.0,30.13,SSE,158,0.0,0.0,76,0.00,,,0.00,weatherlink.com 1.10,2013-10-21 05:09:00,
2013-10-20 23:24:00,26.3,21.0,30.13,SSE,158,0.0,1.0,79,0.00,,,0.00,weatherlink.com 1.10,2013-10-21 05:24:00,
2013-10-20 23:39:00,26.0,20.0,30.14,South,169,0.0,1.0,79,0.00,,,0.00,weatherlink.com 1.10,2013-10-21 05:39:00,
2013-10-20 23:54:00,25.3,20.0,30.14,South,169,0.0,1.0,80,0.00,,,0.00,weatherlink.com 1.10,2013-10-21 05:54:00,